createdAt,value
2023-03-04T00:00:12.119Z,18.31
2023-03-04T00:02:39.270Z,18.38
2023-03-04T00:05:06.352Z,18.36
2023-03-04T00:07:33.556Z,18.27
2023-03-04T00:10:00.673Z,18.33
2023-03-04T00:12:27.754Z,18.28
2023-03-04T00:14:54.905Z,18.30
2023-03-04T00:17:21.984Z,18.32
2023-03-04T00:19:49.210Z,18.33
2023-03-04T00:22:16.354Z,18.37
2023-03-04T00:24:43.452Z,18.35
2023-03-04T00:27:10.558Z,18.32
2023-03-04T00:29:37.624Z,18.21
2023-03-04T00:32:04.799Z,18.29
2023-03-04T00:34:32.967Z,18.36
2023-03-04T00:37:01.618Z,18.37
2023-03-04T00:39:28.782Z,18.32
2023-03-04T00:41:55.868Z,18.24
2023-03-04T00:44:22.977Z,18.33
2023-03-04T00:46:50.055Z,18.19
2023-03-04T00:49:17.134Z,17.99
2023-03-04T00:51:44.226Z,17.86
2023-03-04T00:54:11.308Z,17.78
2023-03-04T00:56:38.375Z,17.69
2023-03-04T00:59:05.435Z,17.61
2023-03-04T01:01:32.589Z,17.57
2023-03-04T01:03:59.749Z,17.57
2023-03-04T01:06:26.859Z,17.55
2023-03-04T01:08:53.943Z,17.51
2023-03-04T01:11:21.030Z,17.56
2023-03-04T01:13:48.640Z,17.51
2023-03-04T01:16:15.820Z,17.54
2023-03-04T01:18:42.933Z,17.54
2023-03-04T01:21:10.028Z,17.54
2023-03-04T01:23:37.109Z,17.53
2023-03-04T01:26:04.241Z,17.45
2023-03-04T01:31:22.677Z,17.32
2023-03-04T01:33:49.765Z,17.26
2023-03-04T01:36:16.846Z,17.23
2023-03-04T01:38:43.934Z,17.20
2023-03-04T01:41:11.016Z,17.17
2023-03-04T01:43:38.406Z,17.15
2023-03-04T01:46:05.514Z,17.09
2023-03-04T01:48:34.084Z,17.09
2023-03-04T01:51:03.188Z,17.07
2023-03-04T01:53:30.258Z,17.05
2023-03-04T01:55:57.366Z,17.03
2023-03-04T01:58:24.484Z,17.00
2023-03-04T02:00:51.579Z,16.96
2023-03-04T02:03:19.843Z,16.95
2023-03-04T02:05:46.908Z,16.95
2023-03-04T02:08:14.010Z,16.95
2023-03-04T02:10:41.082Z,16.91
2023-03-04T02:13:08.243Z,16.88
2023-03-04T02:18:02.408Z,16.85
2023-03-04T02:20:29.533Z,16.82
2023-03-04T02:22:56.602Z,16.80
2023-03-04T02:25:23.682Z,16.82
2023-03-04T02:27:50.779Z,16.79
2023-03-04T02:30:17.842Z,16.75
2023-03-04T02:32:44.919Z,16.78
2023-03-04T02:35:11.999Z,16.74
2023-03-04T02:37:39.097Z,16.73
2023-03-04T02:40:06.440Z,16.71
2023-03-04T02:42:33.533Z,16.70
2023-03-04T02:45:00.677Z,16.68
2023-03-04T02:47:27.807Z,16.70
2023-03-04T02:49:54.908Z,16.67
2023-03-04T02:52:21.978Z,16.68
2023-03-04T02:54:49.058Z,16.67
2023-03-04T02:57:16.251Z,16.66
2023-03-04T02:59:43.315Z,16.63
2023-03-04T03:02:10.490Z,16.60
2023-03-04T03:04:37.633Z,16.59
2023-03-04T03:07:04.723Z,16.61
2023-03-04T03:09:31.877Z,16.56
2023-03-04T03:11:59.022Z,16.55
2023-03-04T03:14:26.116Z,16.54
2023-03-04T03:16:53.216Z,16.55
2023-03-04T03:19:20.292Z,16.53
2023-03-04T03:21:47.397Z,16.52
2023-03-04T03:24:15.294Z,16.49
2023-03-04T03:26:42.416Z,16.48
2023-03-04T03:29:09.485Z,16.48
2023-03-04T03:34:23.613Z,16.45
2023-03-04T03:36:50.694Z,16.44
2023-03-04T03:39:17.826Z,16.43
2023-03-04T03:41:44.894Z,16.43
2023-03-04T03:44:12.049Z,16.41
2023-03-04T03:46:39.272Z,16.39
2023-03-04T03:49:06.385Z,16.41
2023-03-04T03:51:33.464Z,16.37
2023-03-04T03:54:00.547Z,16.39
2023-03-04T03:56:27.629Z,16.40
2023-03-04T03:58:54.780Z,16.36
2023-03-04T04:01:21.864Z,16.35
2023-03-04T04:03:48.959Z,16.32
2023-03-04T04:06:16.029Z,16.33
2023-03-04T04:11:10.080Z,16.31
2023-03-04T04:13:39.205Z,16.29
2023-03-04T04:16:07.033Z,16.28
2023-03-04T04:18:34.281Z,16.28
2023-03-04T04:21:01.597Z,16.25
2023-03-04T04:23:28.670Z,16.27
2023-03-04T04:25:55.739Z,16.24
2023-03-04T04:28:22.821Z,16.23
2023-03-04T04:30:49.995Z,16.23
2023-03-04T04:33:17.097Z,16.22
2023-03-04T04:38:11.220Z,16.21
2023-03-04T04:40:38.301Z,16.20
2023-03-04T04:43:05.407Z,16.18
2023-03-04T04:45:32.538Z,16.16
2023-03-04T04:47:59.644Z,16.16
2023-03-04T04:50:26.766Z,16.14
2023-03-04T04:52:53.944Z,16.16
2023-03-04T04:55:21.015Z,16.11
2023-03-04T04:57:48.066Z,16.11
2023-03-04T05:00:15.217Z,16.09
2023-03-04T05:05:29.333Z,16.09
2023-03-04T05:07:56.440Z,16.09
2023-03-04T05:10:23.570Z,16.09
2023-03-04T05:12:50.638Z,16.08
2023-03-04T05:15:17.787Z,16.05
2023-03-04T05:17:44.907Z,16.04
2023-03-04T05:20:12.026Z,16.06
2023-03-04T05:22:39.099Z,16.01
2023-03-04T05:25:07.082Z,16.02
2023-03-04T05:30:21.146Z,16.00
2023-03-04T05:32:48.220Z,15.99
2023-03-04T05:35:15.305Z,16.00
2023-03-04T05:37:42.385Z,16.00
2023-03-04T05:40:10.370Z,15.99
2023-03-04T05:42:37.449Z,15.97
2023-03-04T05:45:04.582Z,15.97
2023-03-04T05:47:31.673Z,15.96
2023-03-04T05:49:58.742Z,15.97
2023-03-04T05:52:25.816Z,15.96
2023-03-04T05:54:52.886Z,15.95
2023-03-04T05:57:20.021Z,15.95
2023-03-04T05:59:47.119Z,15.94
2023-03-04T06:02:14.182Z,15.92
2023-03-04T06:04:41.326Z,15.94
2023-03-04T06:07:08.442Z,15.93
2023-03-04T06:12:22.493Z,15.90
2023-03-04T06:14:49.574Z,15.91
2023-03-04T06:17:16.635Z,15.87
2023-03-04T06:19:43.918Z,15.82
2023-03-04T06:22:11.245Z,15.85
2023-03-04T06:24:38.313Z,15.82
2023-03-04T06:27:05.398Z,15.83
2023-03-04T06:29:32.476Z,15.81
2023-03-04T06:31:59.613Z,15.79
2023-03-04T06:34:26.708Z,15.81
2023-03-04T06:36:53.882Z,15.79
2023-03-04T06:39:20.942Z,15.77
2023-03-04T06:41:48.037Z,15.79
2023-03-04T06:44:15.146Z,15.77
2023-03-04T06:46:42.336Z,15.77
2023-03-04T06:49:09.768Z,15.74
2023-03-04T06:51:36.890Z,15.75
2023-03-04T06:54:03.953Z,15.72
2023-03-04T06:56:31.041Z,15.73
2023-03-04T06:58:58.109Z,15.73
2023-03-04T07:01:25.243Z,15.71
2023-03-04T07:03:52.344Z,15.71
2023-03-04T07:06:19.447Z,15.70
2023-03-04T07:08:46.581Z,15.69
2023-03-04T07:11:13.661Z,15.68
2023-03-04T07:13:40.747Z,15.70
2023-03-04T07:16:07.925Z,15.68
2023-03-04T07:21:22.031Z,15.67
2023-03-04T07:23:49.130Z,15.66
2023-03-04T07:26:16.201Z,15.65
2023-03-04T07:28:43.489Z,15.65
2023-03-04T07:31:10.587Z,15.66
2023-03-04T07:33:37.853Z,15.63
2023-03-04T07:36:04.954Z,15.64
2023-03-04T07:38:32.064Z,15.62
2023-03-04T07:40:59.162Z,15.62
2023-03-04T07:43:26.235Z,15.62
2023-03-04T07:45:53.389Z,15.63
2023-03-04T07:48:20.483Z,15.59
2023-03-04T07:50:47.557Z,15.62
2023-03-04T07:53:14.624Z,15.62
2023-03-04T07:55:41.853Z,15.61
2023-03-04T07:58:08.936Z,15.62
2023-03-04T08:03:23.017Z,15.61
2023-03-04T08:05:50.086Z,15.62
2023-03-04T08:08:17.495Z,15.62
2023-03-04T08:10:44.596Z,15.63
2023-03-04T08:13:11.641Z,15.62
2023-03-04T08:15:38.729Z,15.62
2023-03-04T08:18:05.793Z,15.61
2023-03-04T08:20:32.884Z,15.63
2023-03-04T08:22:59.966Z,15.62
2023-03-04T08:25:27.025Z,15.60
2023-03-04T08:27:54.085Z,15.63
2023-03-04T08:30:21.166Z,15.62
2023-03-04T08:32:48.312Z,15.65
2023-03-04T08:35:15.404Z,15.63
2023-03-04T08:37:42.502Z,15.63
2023-03-04T08:40:09.595Z,15.63
2023-03-04T08:42:36.767Z,15.63
2023-03-04T08:45:03.884Z,15.66
2023-03-04T08:47:31.079Z,15.71
2023-03-04T08:49:58.649Z,15.67
2023-03-04T08:52:25.738Z,15.69
2023-03-04T08:54:52.805Z,15.67
2023-03-04T08:57:19.910Z,15.68
2023-03-04T08:59:46.984Z,15.68
2023-03-04T09:02:14.049Z,15.72
2023-03-04T09:04:41.339Z,15.67
2023-03-04T09:07:09.467Z,15.70
2023-03-04T09:12:23.527Z,15.75
2023-03-04T09:15:04.649Z,15.74
2023-03-04T09:17:37.154Z,15.76
2023-03-04T09:20:04.836Z,15.76
2023-03-04T09:22:31.909Z,15.73
2023-03-04T09:24:58.973Z,15.76
2023-03-04T09:27:26.089Z,15.75
2023-03-04T09:29:53.186Z,15.76
2023-03-04T09:32:20.377Z,15.77
2023-03-04T09:34:47.477Z,15.77
2023-03-04T09:37:14.545Z,15.78
2023-03-04T09:39:41.602Z,15.81
2023-03-04T09:42:08.653Z,15.84
2023-03-04T09:44:36.871Z,15.85
2023-03-04T09:47:03.985Z,15.82
2023-03-04T09:49:31.042Z,15.81
2023-03-04T09:51:58.272Z,15.85
2023-03-04T09:54:25.376Z,15.88
2023-03-04T09:56:52.441Z,15.90
2023-03-04T09:59:19.639Z,15.86
2023-03-04T10:01:46.707Z,15.88
2023-03-04T10:04:14.233Z,15.89
2023-03-04T10:06:41.314Z,15.90
2023-03-04T10:09:08.369Z,15.92
2023-03-04T10:11:35.456Z,15.91
2023-03-04T10:14:02.534Z,15.91
2023-03-04T10:16:29.712Z,15.90
2023-03-04T10:18:56.849Z,15.94
2023-03-04T10:21:24.490Z,15.91
2023-03-04T10:23:53.511Z,15.91
2023-03-04T10:26:21.217Z,15.93
2023-03-04T10:28:48.270Z,15.92
2023-03-04T10:31:15.393Z,15.94
2023-03-04T10:33:42.498Z,15.95
2023-03-04T10:36:09.561Z,15.96
2023-03-04T10:38:36.758Z,15.96
2023-03-04T10:41:03.825Z,15.98
2023-03-04T10:43:30.910Z,15.99
2023-03-04T10:45:58.049Z,16.01
2023-03-04T10:48:25.154Z,15.99
2023-03-04T10:50:52.301Z,16.01
2023-03-04T10:53:19.378Z,15.99
2023-03-04T10:55:46.498Z,16.01
2023-03-04T10:58:13.559Z,16.00
2023-03-04T11:00:40.753Z,16.03
2023-03-04T11:03:07.850Z,16.05
2023-03-04T11:05:34.937Z,16.03
2023-03-04T11:08:02.012Z,16.05
2023-03-04T11:10:29.098Z,16.07
2023-03-04T11:12:56.168Z,16.09
2023-03-04T11:15:27.265Z,16.08
2023-03-04T11:17:54.336Z,16.07
2023-03-04T11:20:21.397Z,16.09
2023-03-04T11:22:48.466Z,16.07
2023-03-04T11:25:15.549Z,16.09
2023-03-04T11:27:42.886Z,16.11
2023-03-04T11:30:09.971Z,16.12
2023-03-04T11:32:37.250Z,16.12
2023-03-04T11:35:04.332Z,16.13
2023-03-04T11:37:31.554Z,16.17
2023-03-04T11:39:58.618Z,16.12
2023-03-04T11:42:25.687Z,16.10
2023-03-04T11:44:52.773Z,16.13
2023-03-04T11:47:19.875Z,16.13
2023-03-04T11:49:46.964Z,16.15
2023-03-04T11:52:14.062Z,16.14
2023-03-04T11:54:41.176Z,16.14
2023-03-04T11:57:08.247Z,16.16
2023-03-04T11:59:35.561Z,16.17
2023-03-04T12:02:02.619Z,16.17
2023-03-04T12:04:29.787Z,16.18
2023-03-04T12:06:56.924Z,16.18
2023-03-04T12:09:23.995Z,16.19
2023-03-04T12:11:51.064Z,16.19
2023-03-04T12:14:21.055Z,16.18
2023-03-04T12:16:49.185Z,16.21
2023-03-04T12:19:16.305Z,16.21
2023-03-04T12:21:43.376Z,16.19
2023-03-04T12:24:10.599Z,16.21
2023-03-04T12:26:37.816Z,16.20
2023-03-04T12:29:04.907Z,16.24
2023-03-04T12:31:32.029Z,16.24
2023-03-04T12:33:59.218Z,16.21
2023-03-04T12:36:26.296Z,16.23
2023-03-04T12:38:53.421Z,16.25
2023-03-04T12:41:20.587Z,16.25
2023-03-04T12:43:47.791Z,16.26
2023-03-04T12:46:14.924Z,16.27
2023-03-04T12:48:42.021Z,16.25
2023-03-04T12:51:09.255Z,16.24
2023-03-04T12:53:36.327Z,16.24
2023-03-04T12:56:03.399Z,16.29
2023-03-04T12:58:30.486Z,16.25
2023-03-04T13:00:57.608Z,16.30
2023-03-04T13:03:24.828Z,16.25
2023-03-04T13:05:52.500Z,16.22
2023-03-04T13:08:19.625Z,16.28
2023-03-04T13:10:46.722Z,16.31
2023-03-04T13:13:13.834Z,16.30
2023-03-04T13:15:41.052Z,16.32
2023-03-04T13:18:08.139Z,16.30
2023-03-04T13:20:35.472Z,16.26
2023-03-04T13:23:04.675Z,16.30
2023-03-04T13:25:31.761Z,16.30
2023-03-04T13:27:59.040Z,16.33
2023-03-04T13:30:26.169Z,16.35
2023-03-04T13:32:53.235Z,16.35
2023-03-04T13:35:20.314Z,16.34
2023-03-04T13:37:47.386Z,16.32
2023-03-04T13:40:14.487Z,16.33
2023-03-04T13:42:41.554Z,16.35
2023-03-04T13:45:09.091Z,16.35
2023-03-04T13:47:36.170Z,16.33
2023-03-04T13:50:03.374Z,16.34
2023-03-04T13:52:30.447Z,16.34
2023-03-04T13:54:59.240Z,16.37
2023-03-04T13:57:26.351Z,16.35
2023-03-04T13:59:53.410Z,16.35
2023-03-04T14:02:22.618Z,16.35
2023-03-04T14:04:49.840Z,16.36
2023-03-04T14:07:16.895Z,16.38
2023-03-04T14:09:43.955Z,16.38
2023-03-04T14:12:11.032Z,16.38
2023-03-04T14:14:38.090Z,16.37
2023-03-04T14:17:05.210Z,16.37
2023-03-04T14:19:32.383Z,16.40
2023-03-04T14:21:59.461Z,16.40
2023-03-04T14:24:26.557Z,16.39
2023-03-04T14:26:53.614Z,16.39
2023-03-04T14:29:20.680Z,16.39
2023-03-04T14:31:47.835Z,16.39
2023-03-04T14:34:14.964Z,16.38
2023-03-04T14:36:42.030Z,16.40
2023-03-04T14:39:09.104Z,16.40
2023-03-04T14:41:36.240Z,16.40
2023-03-04T14:44:03.293Z,16.43
2023-03-04T14:46:30.358Z,16.41
2023-03-04T14:48:57.486Z,16.39
2023-03-04T14:51:24.547Z,16.38
2023-03-04T14:53:51.620Z,16.43
2023-03-04T14:56:18.693Z,16.41
2023-03-04T14:58:45.749Z,16.41
2023-03-04T15:01:12.842Z,16.41
2023-03-04T15:06:27.148Z,16.42
2023-03-04T15:08:54.213Z,16.43
2023-03-04T15:11:21.286Z,16.43
2023-03-04T15:16:36.799Z,16.44
2023-03-04T15:19:05.755Z,16.43
2023-03-04T15:21:32.832Z,16.42
2023-03-04T15:24:00.126Z,16.46
2023-03-04T15:26:27.217Z,16.47
2023-03-04T15:28:54.291Z,16.48
2023-03-04T15:31:21.389Z,16.48
2023-03-04T15:36:35.463Z,16.51
2023-03-04T15:39:02.546Z,16.54
2023-03-04T15:41:29.678Z,16.55
2023-03-04T15:43:57.176Z,16.56
2023-03-04T15:46:24.371Z,16.57
2023-03-04T15:48:51.514Z,16.55
2023-03-04T15:51:18.575Z,16.56
2023-03-04T15:53:45.725Z,16.60
2023-03-04T15:56:12.792Z,16.56
2023-03-04T16:01:26.968Z,16.55
2023-03-04T16:03:54.151Z,16.49
2023-03-04T16:06:24.280Z,16.55
2023-03-04T16:08:51.353Z,16.56
2023-03-04T16:11:18.419Z,16.58
2023-03-04T16:13:45.488Z,16.54
2023-03-04T16:16:12.714Z,16.53
2023-03-04T16:21:27.494Z,16.55
2023-03-04T16:23:54.717Z,16.58
2023-03-04T16:26:21.786Z,16.54
2023-03-04T16:31:36.041Z,16.59
2023-03-04T16:34:03.114Z,16.56
2023-03-04T16:36:30.311Z,16.57
2023-03-04T16:38:57.459Z,16.54
2023-03-04T16:41:24.518Z,16.54
2023-03-04T16:43:51.584Z,16.54
2023-03-04T16:46:18.677Z,16.55
2023-03-04T16:48:45.874Z,16.58
2023-03-04T16:51:12.939Z,16.59
2023-03-04T16:56:27.048Z,16.61
2023-03-04T16:58:57.109Z,16.57
2023-03-04T17:01:24.278Z,16.58
2023-03-04T17:03:51.393Z,16.57
2023-03-04T17:06:18.482Z,16.60
2023-03-04T17:08:45.538Z,16.58
2023-03-04T17:11:12.597Z,16.59
2023-03-04T17:16:26.777Z,16.62
2023-03-04T17:18:53.930Z,16.61
2023-03-04T17:21:21.013Z,16.61
2023-03-04T17:26:35.069Z,16.61
2023-03-04T17:29:02.246Z,16.62
2023-03-04T17:31:29.393Z,16.60
2023-03-04T17:33:56.524Z,16.63
2023-03-04T17:36:23.628Z,16.62
2023-03-04T17:38:52.038Z,16.65
2023-03-04T17:41:19.217Z,16.63
2023-03-04T17:43:46.316Z,16.61
2023-03-04T17:46:13.553Z,16.62
2023-03-04T17:51:27.767Z,16.62
2023-03-04T17:53:54.832Z,16.59
2023-03-04T17:56:22.024Z,16.59
2023-03-04T17:58:49.108Z,16.60
2023-03-04T18:01:16.239Z,16.60
2023-03-04T18:03:43.369Z,16.61
2023-03-04T18:06:10.430Z,16.60
2023-03-04T18:08:37.497Z,16.61
2023-03-04T18:11:04.602Z,16.58
2023-03-04T18:13:31.666Z,16.59
2023-03-04T18:15:58.801Z,16.59
2023-03-04T18:18:25.912Z,16.58
2023-03-04T18:20:52.978Z,16.58
2023-03-04T18:23:20.070Z,16.56
2023-03-04T18:25:47.343Z,16.57
2023-03-04T18:28:14.442Z,16.58
2023-03-04T18:30:41.513Z,16.59
2023-03-04T18:33:08.703Z,16.59
2023-03-04T18:35:35.886Z,16.60
2023-03-04T18:38:02.975Z,16.60
2023-03-04T18:40:30.098Z,16.58
2023-03-04T18:42:59.896Z,16.58
2023-03-04T18:45:27.100Z,16.58
2023-03-04T18:47:54.291Z,16.59
2023-03-04T18:50:24.359Z,16.60
2023-03-04T18:52:52.732Z,16.59
2023-03-04T18:55:19.799Z,16.57
2023-03-04T18:57:47.024Z,16.59
2023-03-04T19:00:14.097Z,16.59
2023-03-04T19:02:41.208Z,16.58
2023-03-04T19:05:08.336Z,16.59
2023-03-04T19:07:35.421Z,16.60
2023-03-04T19:10:02.512Z,16.58
2023-03-04T19:12:30.234Z,16.59
2023-03-04T19:14:57.373Z,16.58
2023-03-04T19:17:25.667Z,16.58
2023-03-04T19:19:52.747Z,16.57
2023-03-04T19:22:19.823Z,16.58
2023-03-04T19:24:46.903Z,16.60
2023-03-04T19:27:13.968Z,16.63
2023-03-04T19:29:41.038Z,16.61
2023-03-04T19:32:08.171Z,16.65
2023-03-04T19:34:35.272Z,16.63
2023-03-04T19:37:02.357Z,16.63
2023-03-04T19:39:29.540Z,16.60
2023-03-04T19:41:56.605Z,16.60
2023-03-04T19:44:24.397Z,16.57
2023-03-04T19:46:51.475Z,16.60
2023-03-04T19:49:18.556Z,16.59
2023-03-04T19:51:45.707Z,16.57
2023-03-04T19:54:12.798Z,16.59
2023-03-04T19:56:39.923Z,16.60
2023-03-04T19:59:06.994Z,16.56
2023-03-04T20:01:34.143Z,16.56
2023-03-04T20:04:01.323Z,16.58
2023-03-04T20:06:28.832Z,16.59
2023-03-04T20:08:55.988Z,16.58
2023-03-04T20:11:23.055Z,16.60
2023-03-04T20:13:50.142Z,16.56
2023-03-04T20:16:17.380Z,16.58
2023-03-04T20:18:44.549Z,16.59
2023-03-04T20:21:11.635Z,16.58
2023-03-04T20:23:38.708Z,16.58
2023-03-04T20:26:05.877Z,16.58
2023-03-04T20:28:32.945Z,16.56
2023-03-04T20:31:00.051Z,16.58
2023-03-04T20:33:27.154Z,16.59
2023-03-04T20:35:54.262Z,16.58
2023-03-04T20:38:21.463Z,16.58
2023-03-04T20:40:48.537Z,16.57
2023-03-04T20:43:15.672Z,16.57
2023-03-04T20:45:42.740Z,16.57
2023-03-04T20:48:09.919Z,16.59
2023-03-04T20:50:36.981Z,16.58
2023-03-04T20:53:04.035Z,16.58
2023-03-04T20:55:31.157Z,16.57
2023-03-04T20:57:58.247Z,16.58
2023-03-04T21:00:25.449Z,16.57
2023-03-04T21:02:52.538Z,16.58
2023-03-04T21:05:19.597Z,16.55
2023-03-04T21:07:46.703Z,16.55
2023-03-04T21:10:13.765Z,16.55
2023-03-04T21:12:40.838Z,16.54
2023-03-04T21:15:07.916Z,16.53
2023-03-04T21:17:34.989Z,16.51
2023-03-04T21:20:02.062Z,16.51
2023-03-04T21:22:29.146Z,16.52
2023-03-04T21:24:56.278Z,16.53
2023-03-04T21:27:23.454Z,16.53
2023-03-04T21:29:50.569Z,16.51
2023-03-04T21:32:24.104Z,16.50
2023-03-04T21:34:52.395Z,16.49
2023-03-04T21:37:19.599Z,16.54
2023-03-04T21:39:46.871Z,16.52
2023-03-04T21:42:14.044Z,16.54
2023-03-04T21:44:50.167Z,16.51
2023-03-04T21:47:17.732Z,16.51
2023-03-04T21:49:44.849Z,16.50
2023-03-04T21:52:13.053Z,16.51
2023-03-04T21:54:40.150Z,16.52
2023-03-04T21:57:07.228Z,16.52
2023-03-04T21:59:34.337Z,16.48
2023-03-04T22:02:01.432Z,16.52
2023-03-04T22:04:28.526Z,16.50
2023-03-04T22:06:55.590Z,16.50
2023-03-04T22:09:22.660Z,16.48
2023-03-04T22:11:49.743Z,16.52
2023-03-04T22:14:16.824Z,16.49
2023-03-04T22:16:59.292Z,16.48
2023-03-04T22:19:26.445Z,16.47
2023-03-04T22:24:40.529Z,16.48
2023-03-04T22:27:07.606Z,16.50
2023-03-04T22:29:34.669Z,16.50
2023-03-04T22:32:02.260Z,16.48
2023-03-04T22:34:29.452Z,16.50
2023-03-04T22:36:56.534Z,16.49
2023-03-04T22:39:23.611Z,16.47
2023-03-04T22:41:50.741Z,16.50
2023-03-04T22:44:17.871Z,16.49
2023-03-04T22:46:45.073Z,16.45
2023-03-04T22:49:12.185Z,16.48
2023-03-04T22:51:41.102Z,16.48
2023-03-04T22:54:08.209Z,16.50
2023-03-04T22:56:36.499Z,16.47
2023-03-04T22:59:03.584Z,16.46
2023-03-04T23:04:18.034Z,16.46
2023-03-04T23:09:32.180Z,16.48
2023-03-04T23:11:59.314Z,16.48
2023-03-04T23:14:26.434Z,16.49
2023-03-04T23:19:40.506Z,16.48
2023-03-04T23:22:07.581Z,16.46
2023-03-04T23:24:34.738Z,16.49
2023-03-04T23:27:01.806Z,16.48
2023-03-04T23:29:28.870Z,16.46
2023-03-04T23:34:22.940Z,16.47
2023-03-04T23:36:50.026Z,16.46
2023-03-04T23:39:17.093Z,16.48
2023-03-04T23:41:44.155Z,16.47
2023-03-04T23:44:11.277Z,16.46
2023-03-04T23:46:39.229Z,16.47
2023-03-04T23:49:06.340Z,16.46
2023-03-04T23:51:33.416Z,16.44
2023-03-04T23:54:00.521Z,16.46
2023-03-04T23:56:27.611Z,16.47
